createdAt,value
2023-05-04T00:00:11.107Z,6.36
2023-05-04T00:01:11.120Z,5.28
2023-05-04T00:02:11.096Z,4.82
2023-05-04T00:03:11.121Z,5.24
2023-05-04T00:04:11.252Z,4.82
2023-05-04T00:05:11.071Z,4.80
2023-05-04T00:06:11.073Z,4.56
2023-05-04T00:07:11.103Z,4.74
2023-05-04T00:08:11.072Z,5.48
2023-05-04T00:09:11.078Z,5.22
2023-05-04T00:10:11.076Z,5.32
2023-05-04T00:11:11.073Z,5.28
2023-05-04T00:12:11.077Z,5.34
2023-05-04T00:13:11.263Z,4.78
2023-05-04T00:14:11.076Z,6.16
2023-05-04T00:15:11.074Z,5.86
2023-05-04T00:16:11.303Z,5.90
2023-05-04T00:17:11.078Z,4.58
2023-05-04T00:18:11.082Z,6.14
2023-05-04T00:19:11.102Z,5.88
2023-05-04T00:20:11.074Z,5.38
2023-05-04T00:21:11.081Z,5.06
2023-05-04T00:22:11.076Z,5.80
2023-05-04T00:23:11.079Z,5.42
2023-05-04T00:24:11.074Z,7.10
2023-05-04T00:25:11.082Z,6.16
2023-05-04T00:26:11.073Z,5.50
2023-05-04T00:27:11.098Z,6.22
2023-05-04T00:28:11.082Z,6.06
2023-05-04T00:29:11.084Z,6.04
2023-05-04T00:30:11.123Z,5.42
2023-05-04T00:31:11.122Z,5.46
2023-05-04T00:32:11.072Z,5.60
2023-05-04T00:33:11.140Z,5.90
2023-05-04T00:34:11.099Z,5.50
2023-05-04T00:35:11.076Z,5.58
2023-05-04T00:36:11.080Z,5.84
2023-05-04T00:37:11.095Z,5.68
2023-05-04T00:38:11.075Z,5.80
2023-05-04T00:39:11.085Z,5.88
2023-05-04T00:40:11.092Z,5.22
2023-05-04T00:41:11.078Z,5.10
2023-05-04T00:42:11.100Z,5.38
2023-05-04T00:43:11.091Z,5.62
2023-05-04T00:44:11.092Z,5.54
2023-05-04T00:45:11.080Z,6.20
2023-05-04T00:46:11.125Z,5.62
2023-05-04T00:47:11.136Z,5.40
2023-05-04T00:48:11.143Z,5.36
2023-05-04T00:49:11.091Z,5.86
2023-05-04T00:50:11.084Z,6.34
2023-05-04T00:51:11.077Z,6.52
2023-05-04T00:52:11.094Z,6.34
2023-05-04T00:53:11.086Z,6.70
2023-05-04T00:54:11.079Z,5.04
2023-05-04T00:55:11.090Z,5.84
2023-05-04T00:56:11.088Z,6.44
2023-05-04T00:57:11.078Z,5.58
2023-05-04T00:58:11.084Z,6.24
2023-05-04T00:59:11.080Z,6.38
2023-05-04T01:00:11.087Z,6.64
2023-05-04T01:01:11.140Z,6.20
2023-05-04T01:02:11.062Z,6.06
2023-05-04T01:03:11.162Z,5.76
2023-05-04T01:04:11.197Z,5.68
2023-05-04T01:05:11.077Z,6.50
2023-05-04T01:06:19.062Z,6.46
2023-05-04T01:07:19.066Z,6.30
2023-05-04T01:08:18.070Z,5.34
2023-05-04T01:09:20.063Z,5.68
2023-05-04T01:10:20.075Z,5.78
2023-05-04T01:11:17.060Z,6.12
2023-05-04T01:12:18.080Z,7.24
2023-05-04T01:13:13.223Z,6.18
2023-05-04T01:14:11.071Z,6.86
2023-05-04T01:15:13.082Z,7.10
2023-05-04T01:16:11.093Z,6.88
2023-05-04T01:17:11.264Z,6.32
2023-05-04T01:18:11.108Z,6.76
2023-05-04T01:19:11.067Z,6.18
2023-05-04T01:20:11.083Z,6.98
2023-05-04T01:21:11.066Z,7.06
2023-05-04T01:22:11.064Z,7.40
2023-05-04T01:23:11.068Z,7.34
2023-05-04T01:24:11.068Z,7.36
2023-05-04T01:25:11.065Z,7.16
2023-05-04T01:26:16.068Z,6.32
2023-05-04T01:27:18.088Z,6.68
2023-05-04T01:28:18.066Z,6.72
2023-05-04T01:29:17.076Z,7.58
2023-05-04T01:30:18.084Z,7.18
2023-05-04T01:31:13.100Z,7.02
2023-05-04T01:32:11.067Z,7.26
2023-05-04T01:33:11.168Z,8.54
2023-05-04T01:34:11.064Z,7.50
2023-05-04T01:35:11.069Z,9.02
2023-05-04T01:36:11.074Z,7.86
2023-05-04T01:37:11.072Z,8.16
2023-05-04T01:38:11.069Z,7.64
2023-05-04T01:39:11.071Z,8.38
2023-05-04T01:40:11.069Z,7.10
2023-05-04T01:41:11.064Z,8.46
2023-05-04T01:42:11.079Z,9.28
2023-05-04T01:43:11.064Z,8.86
2023-05-04T01:44:11.060Z,7.70
2023-05-04T01:45:11.072Z,8.04
2023-05-04T01:46:11.105Z,9.76
2023-05-04T01:47:11.059Z,7.84
2023-05-04T01:48:11.112Z,7.54
2023-05-04T01:49:11.079Z,8.46
2023-05-04T01:50:11.063Z,7.88
2023-05-04T01:51:11.067Z,8.06
2023-05-04T01:52:11.066Z,9.14
2023-05-04T01:53:11.059Z,8.72
2023-05-04T01:54:11.064Z,10.02
2023-05-04T01:55:11.069Z,7.84
2023-05-04T01:56:11.060Z,8.66
2023-05-04T01:57:11.071Z,9.32
2023-05-04T01:58:11.074Z,7.98
2023-05-04T01:59:11.066Z,9.44
2023-05-04T02:00:11.076Z,9.72
2023-05-04T02:01:11.090Z,9.34
2023-05-04T02:02:11.065Z,9.30
2023-05-04T02:03:11.137Z,8.98
2023-05-04T02:04:11.276Z,8.72
2023-05-04T02:05:11.070Z,9.26
2023-05-04T02:06:11.065Z,9.64
2023-05-04T02:07:11.145Z,8.24
2023-05-04T02:08:11.068Z,9.74
2023-05-04T02:09:11.064Z,8.62
2023-05-04T02:10:11.074Z,10.62
2023-05-04T02:11:11.071Z,9.58
2023-05-04T02:12:11.067Z,9.16
2023-05-04T02:13:11.127Z,9.92
2023-05-04T02:14:11.064Z,8.28
2023-05-04T02:15:11.079Z,9.38
2023-05-04T02:16:11.117Z,8.88
2023-05-04T02:17:11.065Z,9.48
2023-05-04T02:18:11.132Z,8.90
2023-05-04T02:19:11.071Z,10.12
2023-05-04T02:20:11.067Z,10.34
2023-05-04T02:21:11.067Z,11.36
2023-05-04T02:22:11.068Z,9.00
2023-05-04T02:23:11.068Z,10.18
2023-05-04T02:24:11.063Z,9.60
2023-05-04T02:25:11.071Z,11.14
2023-05-04T02:26:11.071Z,11.22
2023-05-04T02:27:11.063Z,8.10
2023-05-04T02:28:11.065Z,8.40
2023-05-04T02:29:11.072Z,9.74
2023-05-04T02:30:11.066Z,8.86
2023-05-04T02:31:11.084Z,8.64
2023-05-04T02:32:11.076Z,9.14
2023-05-04T02:33:11.065Z,8.68
2023-05-04T02:34:11.076Z,9.18
2023-05-04T02:35:11.074Z,9.38
2023-05-04T02:36:11.069Z,9.32
2023-05-04T02:37:11.062Z,8.96
2023-05-04T02:38:11.077Z,10.42
2023-05-04T02:39:11.075Z,10.06
2023-05-04T02:40:11.060Z,11.46
2023-05-04T02:41:11.074Z,10.16
2023-05-04T02:42:11.068Z,9.80
2023-05-04T02:43:11.071Z,9.62
2023-05-04T02:44:11.071Z,10.52
2023-05-04T02:45:11.074Z,9.94
2023-05-04T02:46:11.126Z,9.98
2023-05-04T02:47:11.067Z,11.18
2023-05-04T02:48:11.078Z,9.42
2023-05-04T02:49:11.068Z,10.68
2023-05-04T02:50:11.073Z,10.30
2023-05-04T02:51:11.080Z,10.38
2023-05-04T02:52:11.074Z,10.00
2023-05-04T02:53:11.092Z,9.70
2023-05-04T02:54:11.079Z,10.12
2023-05-04T02:55:11.071Z,10.16
2023-05-04T02:56:11.069Z,9.84
2023-05-04T02:57:11.089Z,9.90
2023-05-04T02:58:11.073Z,12.82
2023-05-04T02:59:11.072Z,11.88
2023-05-04T03:00:11.091Z,12.06
2023-05-04T03:01:11.095Z,9.88
2023-05-04T03:02:11.086Z,9.52
2023-05-04T03:03:11.074Z,11.06
2023-05-04T03:04:11.100Z,11.14
2023-05-04T03:05:11.074Z,10.40
2023-05-04T03:06:11.076Z,10.86
2023-05-04T03:07:11.084Z,11.14
2023-05-04T03:08:11.094Z,10.48
2023-05-04T03:09:11.109Z,10.72
2023-05-04T03:10:11.083Z,9.80
2023-05-04T03:11:11.094Z,11.36
2023-05-04T03:12:11.071Z,10.36
2023-05-04T03:13:11.105Z,11.52
2023-05-04T03:14:11.085Z,10.26
2023-05-04T03:15:11.073Z,10.08
2023-05-04T03:16:11.106Z,10.86
2023-05-04T03:17:11.075Z,11.44
2023-05-04T03:18:11.127Z,12.30
2023-05-04T03:19:11.080Z,12.18
2023-05-04T03:20:12.072Z,10.28
2023-05-04T03:21:11.082Z,12.56
2023-05-04T03:22:11.094Z,12.16
2023-05-04T03:23:11.076Z,11.84
2023-05-04T03:24:11.077Z,12.22
2023-05-04T03:25:11.077Z,13.44
2023-05-04T03:26:11.076Z,12.34
2023-05-04T03:27:11.072Z,13.10
2023-05-04T03:28:11.083Z,12.86
2023-05-04T03:29:11.078Z,12.04
2023-05-04T03:30:11.073Z,14.30
2023-05-04T03:31:11.074Z,12.92
2023-05-04T03:32:11.134Z,12.70
2023-05-04T03:33:11.093Z,14.10
2023-05-04T03:34:11.075Z,12.50
2023-05-04T03:35:11.076Z,11.76
2023-05-04T03:36:11.075Z,12.80
2023-05-04T03:37:11.078Z,13.36
2023-05-04T03:38:13.079Z,13.60
2023-05-04T03:39:11.075Z,14.48
2023-05-04T03:40:11.072Z,13.50
2023-05-04T03:41:11.088Z,13.48
2023-05-04T03:42:11.077Z,13.46
2023-05-04T03:43:11.075Z,13.74
2023-05-04T03:44:11.080Z,13.62
2023-05-04T03:45:11.078Z,12.76
2023-05-04T03:46:11.129Z,12.48
2023-05-04T03:47:11.106Z,12.92
2023-05-04T03:48:11.163Z,12.54
2023-05-04T03:49:11.076Z,14.06
2023-05-04T03:50:11.087Z,12.32
2023-05-04T03:51:11.078Z,14.94
2023-05-04T03:52:11.082Z,12.68
2023-05-04T03:53:11.086Z,13.00
2023-05-04T03:54:11.076Z,13.66
2023-05-04T03:55:11.079Z,13.78
2023-05-04T03:56:11.084Z,15.26
2023-05-04T03:57:11.086Z,14.30
2023-05-04T03:58:11.081Z,14.12
2023-05-04T03:59:11.092Z,14.82
2023-05-04T04:00:11.086Z,14.38
2023-05-04T04:01:11.067Z,15.52
2023-05-04T04:02:11.090Z,13.34
2023-05-04T04:03:11.225Z,15.20
2023-05-04T04:04:11.082Z,13.92
2023-05-04T04:05:11.070Z,14.22
2023-05-04T04:06:12.064Z,14.10
2023-05-04T04:07:11.063Z,13.00
2023-05-04T04:08:11.064Z,14.16
2023-05-04T04:09:11.061Z,14.66
2023-05-04T04:10:11.059Z,13.12
2023-05-04T04:11:11.078Z,14.80
2023-05-04T04:12:11.063Z,13.66
2023-05-04T04:13:11.132Z,14.28
2023-05-04T04:14:11.066Z,13.78
2023-05-04T04:15:11.070Z,14.64
2023-05-04T04:16:11.076Z,14.94
2023-05-04T04:17:11.064Z,14.64
2023-05-04T04:18:11.064Z,13.96
2023-05-04T04:19:11.067Z,15.48
2023-05-04T04:20:11.077Z,15.46
2023-05-04T04:21:11.065Z,14.56
2023-05-04T04:22:11.061Z,14.34
2023-05-04T04:23:11.063Z,13.28
2023-05-04T04:24:11.088Z,14.74
2023-05-04T04:25:11.065Z,15.68
2023-05-04T04:26:11.072Z,15.90
2023-05-04T04:27:11.071Z,14.82
2023-05-04T04:28:11.064Z,13.40
2023-05-04T04:29:11.068Z,16.06
2023-05-04T04:30:11.066Z,16.78
2023-05-04T04:31:11.134Z,15.06
2023-05-04T04:32:11.077Z,15.30
2023-05-04T04:33:11.089Z,13.56
2023-05-04T04:34:11.065Z,12.76
2023-05-04T04:35:11.081Z,15.54
2023-05-04T04:36:11.085Z,16.36
2023-05-04T04:37:11.064Z,15.08
2023-05-04T04:38:11.065Z,15.78
2023-05-04T04:39:11.097Z,17.12
2023-05-04T04:40:11.065Z,16.28
2023-05-04T04:41:11.065Z,15.22
2023-05-04T04:42:11.067Z,15.74
2023-05-04T04:43:11.063Z,15.44
2023-05-04T04:44:11.068Z,15.78
2023-05-04T04:45:11.071Z,14.74
2023-05-04T04:46:11.088Z,16.46
2023-05-04T04:47:11.068Z,15.56
2023-05-04T04:48:11.223Z,16.06
2023-05-04T04:49:11.070Z,15.94
2023-05-04T04:50:11.059Z,15.56
2023-05-04T04:51:13.069Z,15.12
2023-05-04T04:52:12.198Z,15.50
2023-05-04T04:53:11.082Z,16.60
2023-05-04T04:54:11.066Z,14.96
2023-05-04T04:55:11.080Z,17.40
2023-05-04T04:56:11.082Z,16.66
2023-05-04T04:57:11.069Z,14.54
2023-05-04T04:58:11.076Z,15.98
2023-05-04T04:59:11.081Z,15.98
2023-05-04T05:00:13.070Z,15.68
2023-05-04T05:01:11.140Z,14.66
2023-05-04T05:02:11.068Z,16.40
2023-05-04T05:03:11.134Z,15.12
2023-05-04T05:04:11.097Z,9.46
2023-05-04T05:05:11.136Z,14.56
2023-05-04T05:06:11.075Z,14.66
2023-05-04T05:07:12.082Z,15.44
2023-05-04T05:08:11.068Z,14.56
2023-05-04T05:09:11.066Z,13.74
2023-05-04T05:10:11.088Z,15.08
2023-05-04T05:11:11.077Z,15.08
2023-05-04T05:12:11.064Z,15.96
2023-05-04T05:13:11.127Z,16.04
2023-05-04T05:14:11.078Z,16.22
2023-05-04T05:15:11.069Z,17.48
2023-05-04T05:16:11.091Z,16.06
2023-05-04T05:17:11.072Z,16.42
2023-05-04T05:18:11.100Z,16.64
2023-05-04T05:19:11.076Z,16.96
2023-05-04T05:20:14.128Z,17.14
2023-05-04T05:21:11.066Z,17.00
2023-05-04T05:22:11.075Z,17.98
2023-05-04T05:23:11.080Z,17.66
2023-05-04T05:24:11.070Z,17.60
2023-05-04T05:25:11.094Z,16.64
2023-05-04T05:26:11.106Z,18.24
2023-05-04T05:27:11.077Z,19.18
2023-05-04T05:28:11.074Z,17.30
2023-05-04T05:29:11.078Z,17.96
2023-05-04T05:30:11.071Z,18.06
2023-05-04T05:31:11.142Z,19.10
2023-05-04T05:32:11.079Z,18.22
2023-05-04T05:33:11.138Z,17.28
2023-05-04T05:34:11.071Z,16.74
2023-05-04T05:35:11.080Z,16.28
2023-05-04T05:36:11.095Z,18.54
2023-05-04T05:37:11.077Z,16.80
2023-05-04T05:38:11.079Z,18.76
2023-05-04T05:39:11.074Z,17.98
2023-05-04T05:40:11.081Z,17.46
2023-05-04T05:41:11.077Z,16.44
2023-05-04T05:42:11.085Z,18.96
2023-05-04T05:43:11.077Z,17.98
2023-05-04T05:44:12.957Z,18.02
2023-05-04T05:45:11.074Z,17.60
2023-05-04T05:46:11.149Z,19.22
2023-05-04T05:47:11.069Z,18.14
2023-05-04T05:48:11.132Z,16.96
2023-05-04T05:49:11.073Z,16.90
2023-05-04T05:50:11.079Z,16.52
2023-05-04T05:51:11.075Z,15.54
2023-05-04T05:52:11.080Z,15.60
2023-05-04T05:53:11.077Z,15.38
2023-05-04T05:54:11.079Z,15.32
2023-05-04T05:55:11.075Z,17.98
2023-05-04T05:56:11.078Z,15.88
2023-05-04T05:57:11.080Z,15.98
2023-05-04T05:58:11.074Z,15.54
2023-05-04T05:59:11.072Z,16.40
2023-05-04T06:00:11.081Z,15.56
2023-05-04T06:01:11.069Z,16.46
2023-05-04T06:02:11.117Z,14.88
2023-05-04T06:03:11.206Z,14.48
2023-05-04T06:04:11.223Z,16.02
2023-05-04T06:05:11.097Z,17.00
2023-05-04T06:06:11.088Z,16.90
2023-05-04T06:07:11.081Z,17.82
2023-05-04T06:08:11.069Z,16.38
2023-05-04T06:09:11.089Z,16.10
2023-05-04T06:10:11.079Z,15.82
2023-05-04T06:11:11.075Z,16.38
2023-05-04T06:12:11.076Z,17.86
2023-05-04T06:13:11.156Z,15.24
2023-05-04T06:14:11.074Z,16.78
2023-05-04T06:15:11.070Z,15.30
2023-05-04T06:16:11.130Z,16.06
2023-05-04T06:17:11.079Z,17.28
2023-05-04T06:18:11.074Z,15.52
2023-05-04T06:19:11.082Z,15.04
2023-05-04T06:20:11.075Z,15.20
2023-05-04T06:21:11.074Z,15.98
2023-05-04T06:22:11.077Z,16.72
2023-05-04T06:23:11.081Z,17.60
2023-05-04T06:24:11.083Z,16.82
2023-05-04T06:25:11.082Z,16.52
2023-05-04T06:26:11.074Z,16.68
2023-05-04T06:27:11.086Z,15.98
2023-05-04T06:28:11.080Z,16.48
2023-05-04T06:29:11.079Z,16.34
2023-05-04T06:30:11.081Z,17.46
2023-05-04T06:31:11.113Z,15.26
2023-05-04T06:32:11.311Z,16.12
2023-05-04T06:33:11.145Z,16.16
2023-05-04T06:34:11.076Z,16.20
2023-05-04T06:35:11.075Z,15.74
2023-05-04T06:36:11.075Z,14.74
2023-05-04T06:37:11.958Z,15.82
2023-05-04T06:38:11.075Z,15.30
2023-05-04T06:39:11.074Z,15.00
2023-05-04T06:40:11.418Z,15.42
2023-05-04T06:41:11.072Z,15.92
2023-05-04T06:42:11.074Z,15.78
2023-05-04T06:43:11.076Z,15.70
2023-05-04T06:44:11.081Z,16.18
2023-05-04T06:45:11.078Z,15.68
2023-05-04T06:46:11.099Z,15.06
2023-05-04T06:47:11.085Z,14.64
2023-05-04T06:48:11.124Z,15.92
2023-05-04T06:49:11.084Z,15.58
2023-05-04T06:50:11.094Z,17.04
2023-05-04T06:51:11.082Z,15.94
2023-05-04T06:52:11.086Z,14.54
2023-05-04T06:53:11.076Z,16.26
2023-05-04T06:54:11.083Z,15.94
2023-05-04T06:55:11.085Z,15.04
2023-05-04T06:56:11.097Z,16.46
2023-05-04T06:57:11.117Z,16.44
2023-05-04T06:58:11.074Z,16.42
2023-05-04T06:59:11.088Z,16.88
2023-05-04T07:00:11.087Z,15.26
2023-05-04T07:01:12.118Z,17.04
2023-05-04T07:02:11.063Z,16.72
2023-05-04T07:03:11.209Z,17.54
2023-05-04T07:04:11.126Z,16.10
2023-05-04T07:05:11.063Z,16.40
2023-05-04T07:06:11.069Z,15.66
2023-05-04T07:07:11.068Z,15.94
2023-05-04T07:08:11.076Z,16.72
2023-05-04T07:09:11.074Z,16.48
2023-05-04T07:10:11.062Z,15.80
2023-05-04T07:11:11.079Z,15.62
2023-05-04T07:12:11.066Z,15.52
2023-05-04T07:13:11.195Z,18.26
2023-05-04T07:14:11.068Z,16.42
2023-05-04T07:15:11.071Z,15.80
2023-05-04T07:16:11.077Z,14.82
2023-05-04T07:17:11.057Z,15.76
2023-05-04T07:18:11.102Z,16.36
2023-05-04T07:19:11.106Z,15.90
2023-05-04T07:20:11.089Z,17.06
2023-05-04T07:22:11.065Z,16.32
2023-05-04T07:23:11.070Z,15.48
2023-05-04T07:24:11.070Z,14.50
2023-05-04T07:25:11.068Z,16.90
2023-05-04T07:26:11.060Z,15.40
2023-05-04T07:27:11.068Z,17.06
2023-05-04T07:28:11.062Z,16.30
2023-05-04T07:29:11.059Z,18.16
2023-05-04T07:30:11.061Z,16.16
2023-05-04T07:31:11.068Z,16.86
2023-05-04T07:32:11.141Z,14.94
2023-05-04T07:33:11.078Z,15.06
2023-05-04T07:34:11.087Z,15.56
2023-05-04T07:35:11.065Z,16.20
2023-05-04T07:36:11.061Z,16.52
2023-05-04T07:37:11.072Z,15.52
2023-05-04T07:38:11.062Z,18.04
2023-05-04T07:39:11.065Z,16.50
2023-05-04T07:40:11.074Z,13.76
2023-05-04T07:41:11.060Z,16.86
2023-05-04T07:42:11.069Z,18.64
2023-05-04T07:43:11.069Z,16.26
2023-05-04T07:44:12.059Z,17.46
2023-05-04T07:45:11.066Z,15.60
2023-05-04T07:46:11.097Z,17.00
2023-05-04T07:47:11.063Z,16.26
2023-05-04T07:48:11.130Z,17.22
2023-05-04T07:49:11.065Z,17.54
2023-05-04T07:50:11.064Z,16.86
2023-05-04T07:51:13.061Z,17.24
2023-05-04T07:52:11.074Z,18.46
2023-05-04T07:53:11.066Z,17.10
2023-05-04T07:54:11.063Z,15.52
2023-05-04T07:55:11.070Z,15.38
2023-05-04T07:56:11.065Z,16.02
2023-05-04T07:57:11.063Z,14.62
2023-05-04T07:58:11.064Z,16.96
2023-05-04T07:59:11.067Z,14.84
2023-05-04T08:00:11.062Z,17.20
2023-05-04T08:01:11.082Z,13.88
2023-05-04T08:02:11.094Z,14.76
2023-05-04T08:03:11.171Z,14.90
2023-05-04T08:04:11.068Z,15.12
2023-05-04T08:05:11.075Z,14.76
2023-05-04T08:06:11.067Z,15.66
2023-05-04T08:07:11.070Z,12.82
2023-05-04T08:08:11.075Z,14.44
2023-05-04T08:09:11.073Z,16.04
2023-05-04T08:10:11.068Z,15.12
2023-05-04T08:11:19.065Z,13.18
2023-05-04T08:12:13.081Z,14.34
2023-05-04T08:13:11.148Z,13.18
2023-05-04T08:14:11.070Z,14.58
2023-05-04T08:15:11.068Z,14.52
2023-05-04T08:16:11.080Z,12.78
2023-05-04T08:17:11.070Z,13.38
2023-05-04T08:18:11.069Z,14.74
2023-05-04T08:19:11.072Z,13.42
2023-05-04T08:20:11.072Z,13.88
2023-05-04T08:21:11.079Z,11.52
2023-05-04T08:22:11.064Z,11.58
2023-05-04T08:23:11.079Z,13.74
2023-05-04T08:24:11.080Z,13.94
2023-05-04T08:25:11.072Z,12.88
2023-05-04T08:26:11.070Z,13.22
2023-05-04T08:27:12.072Z,13.34
2023-05-04T08:28:11.071Z,13.22
2023-05-04T08:29:11.097Z,13.34
2023-05-04T08:30:11.070Z,13.26
2023-05-04T08:31:11.142Z,13.66
2023-05-04T08:32:11.074Z,14.94
2023-05-04T08:33:11.104Z,13.20
2023-05-04T08:34:11.073Z,14.62
2023-05-04T08:35:11.084Z,13.64
2023-05-04T08:36:11.077Z,14.52
2023-05-04T08:37:11.077Z,15.92
2023-05-04T08:38:11.076Z,15.04
2023-05-04T08:39:11.089Z,15.28
2023-05-04T08:40:11.079Z,16.22
2023-05-04T08:41:11.105Z,15.32
2023-05-04T08:42:11.086Z,13.36
2023-05-04T08:43:11.075Z,14.72
2023-05-04T08:44:11.076Z,11.26
2023-05-04T08:45:11.085Z,14.06
2023-05-04T08:46:11.097Z,15.16
2023-05-04T08:47:11.080Z,14.78
2023-05-04T08:48:11.096Z,14.22
2023-05-04T08:49:11.078Z,12.94
2023-05-04T08:50:11.084Z,11.24
2023-05-04T08:51:11.084Z,11.14
2023-05-04T08:52:11.075Z,9.44
2023-05-04T08:53:13.101Z,10.16
2023-05-04T08:54:11.128Z,10.60
2023-05-04T08:55:13.091Z,9.36
2023-05-04T08:56:12.073Z,10.26
2023-05-04T08:57:11.081Z,10.12
2023-05-04T08:58:12.091Z,9.54
2023-05-04T08:59:17.075Z,10.50
2023-05-04T09:00:11.080Z,9.54
2023-05-04T09:01:11.163Z,9.02
2023-05-04T09:02:13.155Z,13.26
2023-05-04T09:03:11.193Z,12.82
2023-05-04T09:04:11.094Z,12.64
2023-05-04T09:05:12.087Z,13.64
2023-05-04T09:06:11.092Z,12.22
2023-05-04T09:07:11.084Z,12.24
2023-05-04T09:08:11.080Z,12.14
2023-05-04T09:09:11.083Z,12.28
2023-05-04T09:10:11.085Z,13.04
2023-05-04T09:11:11.087Z,12.82
2023-05-04T09:12:11.091Z,14.24
2023-05-04T09:13:11.179Z,12.58
2023-05-04T09:14:11.081Z,13.46
2023-05-04T09:15:15.076Z,10.56
2023-05-04T09:16:12.758Z,11.94
2023-05-04T09:17:15.082Z,12.92
2023-05-04T09:18:11.088Z,12.46
2023-05-04T09:19:17.093Z,14.00
2023-05-04T09:20:11.088Z,13.48
2023-05-04T09:21:11.082Z,13.66
2023-05-04T09:22:15.074Z,12.82
2023-05-04T09:23:11.116Z,14.96
2023-05-04T09:24:11.081Z,13.66
2023-05-04T09:25:14.080Z,14.70
2023-05-04T09:26:11.080Z,16.30
2023-05-04T09:27:13.092Z,15.88
2023-05-04T09:28:11.079Z,14.20
2023-05-04T09:29:13.098Z,13.16
2023-05-04T09:30:12.083Z,14.28
2023-05-04T09:31:11.122Z,13.26
2023-05-04T09:32:13.174Z,13.16
2023-05-04T09:33:11.082Z,13.20
2023-05-04T09:34:11.102Z,12.82
2023-05-04T09:35:16.167Z,10.22
2023-05-04T09:36:21.341Z,12.58
2023-05-04T09:37:11.084Z,12.84
2023-05-04T09:38:11.077Z,13.64
2023-05-04T09:39:15.166Z,13.58
2023-05-04T09:40:11.100Z,12.08
2023-05-04T09:41:11.124Z,14.40
2023-05-04T09:42:17.082Z,14.36
2023-05-04T09:43:11.087Z,12.46
2023-05-04T09:44:19.090Z,12.00
2023-05-04T09:45:11.085Z,12.20
2023-05-04T09:46:17.114Z,12.58
2023-05-04T09:47:11.095Z,13.90
2023-05-04T09:48:19.172Z,11.12
2023-05-04T09:49:11.085Z,13.20
2023-05-04T09:50:19.066Z,13.04
2023-05-04T09:51:11.102Z,12.48
2023-05-04T09:52:11.106Z,13.42
2023-05-04T09:53:11.089Z,11.98
2023-05-04T09:54:11.090Z,12.82
2023-05-04T09:55:12.088Z,13.70
2023-05-04T09:56:17.089Z,12.98
2023-05-04T09:57:15.110Z,12.96
2023-05-04T09:58:11.086Z,12.58
2023-05-04T09:59:11.082Z,11.92
2023-05-04T10:00:13.104Z,13.92
2023-05-04T10:01:11.176Z,13.06
2023-05-04T10:02:22.131Z,12.80
2023-05-04T10:03:13.055Z,12.98
2023-05-04T10:04:11.062Z,13.06
2023-05-04T10:05:13.107Z,13.76
2023-05-04T10:06:11.068Z,11.92
2023-05-04T10:07:11.065Z,12.36
2023-05-04T10:08:11.062Z,13.36
2023-05-04T10:09:11.063Z,13.02
2023-05-04T10:10:11.081Z,11.76
2023-05-04T10:11:11.068Z,12.58
2023-05-04T10:12:11.062Z,11.94
2023-05-04T10:13:11.140Z,11.42
2023-05-04T10:14:11.062Z,15.34
2023-05-04T10:15:11.077Z,9.72
2023-05-04T10:16:21.143Z,11.32
2023-05-04T10:17:19.060Z,11.54
2023-05-04T10:18:19.069Z,11.20
2023-05-04T10:19:19.072Z,10.16
2023-05-04T10:20:19.071Z,9.94
2023-05-04T10:21:19.092Z,10.42
2023-05-04T10:22:19.061Z,9.38
2023-05-04T10:23:19.072Z,10.72
2023-05-04T10:24:19.072Z,9.24
2023-05-04T10:25:21.070Z,10.58
2023-05-04T10:26:19.065Z,9.46
2023-05-04T10:27:18.060Z,10.02
2023-05-04T10:28:21.069Z,10.62
2023-05-04T10:29:20.584Z,11.36
2023-05-04T10:30:11.066Z,13.26
2023-05-04T10:31:11.114Z,11.96
2023-05-04T10:32:17.068Z,12.02
2023-05-04T10:33:11.092Z,11.86
2023-05-04T10:34:11.066Z,13.50
2023-05-04T10:35:11.065Z,12.70
2023-05-04T10:36:11.080Z,12.40
2023-05-04T10:37:20.098Z,10.98
2023-05-04T10:38:11.067Z,10.30
2023-05-04T10:39:20.089Z,11.26
2023-05-04T10:40:11.076Z,11.04
2023-05-04T10:41:17.069Z,11.46
2023-05-04T10:42:11.068Z,10.26
2023-05-04T10:43:15.078Z,11.34
2023-05-04T10:44:11.068Z,11.04
2023-05-04T10:45:11.081Z,11.44
2023-05-04T10:46:19.082Z,9.76
2023-05-04T10:47:11.071Z,10.56
2023-05-04T10:48:11.103Z,11.88
2023-05-04T10:49:16.073Z,11.70
2023-05-04T10:50:11.076Z,11.28
2023-05-04T10:51:17.072Z,11.22
2023-05-04T10:52:14.070Z,10.56
2023-05-04T10:53:11.109Z,11.96
2023-05-04T10:54:17.083Z,12.48
2023-05-04T10:55:11.069Z,11.46
2023-05-04T10:56:15.073Z,11.50
2023-05-04T10:57:12.076Z,10.74
2023-05-04T10:58:11.068Z,9.84
2023-05-04T10:59:11.069Z,9.92
2023-05-04T11:00:11.072Z,10.42
2023-05-04T11:01:13.084Z,9.74
2023-05-04T11:02:11.079Z,8.88
2023-05-04T11:03:11.218Z,10.52
2023-05-04T11:04:19.074Z,11.04
2023-05-04T11:05:11.072Z,9.12
2023-05-04T11:06:23.161Z,9.62
2023-05-04T11:07:11.071Z,10.20
2023-05-04T11:08:15.070Z,9.82
2023-05-04T11:09:14.070Z,10.40
2023-05-04T11:10:15.132Z,10.32
2023-05-04T11:11:12.074Z,10.54
2023-05-04T11:12:11.074Z,9.82
2023-05-04T11:13:12.158Z,10.36
2023-05-04T11:14:11.082Z,9.78
2023-05-04T11:15:11.073Z,10.92
2023-05-04T11:16:11.113Z,9.22
2023-05-04T11:17:26.916Z,9.12
2023-05-04T11:18:13.188Z,9.98
2023-05-04T11:19:11.083Z,9.30
2023-05-04T11:20:11.082Z,8.64
2023-05-04T11:21:11.073Z,9.10
2023-05-04T11:22:11.072Z,7.48
2023-05-04T11:23:17.097Z,10.94
2023-05-04T11:24:11.073Z,9.80
2023-05-04T11:25:11.077Z,9.18
2023-05-04T11:26:11.081Z,10.06
2023-05-04T11:27:15.069Z,10.10
2023-05-04T11:28:11.088Z,9.92
2023-05-04T11:29:15.080Z,9.84
2023-05-04T11:30:11.111Z,8.80
2023-05-04T11:31:15.154Z,10.98
2023-05-04T11:32:11.097Z,10.52
2023-05-04T11:33:13.078Z,9.34
2023-05-04T11:34:15.074Z,10.70
2023-05-04T11:35:15.081Z,9.38
2023-05-04T11:36:11.075Z,9.92
2023-05-04T11:37:11.075Z,10.56
2023-05-04T11:38:11.078Z,10.06
2023-05-04T11:39:12.082Z,10.88
2023-05-04T11:40:15.148Z,9.86
2023-05-04T11:41:11.079Z,9.52
2023-05-04T11:42:11.092Z,9.86
2023-05-04T11:43:12.106Z,9.20
2023-05-04T11:44:11.076Z,10.54
2023-05-04T11:45:19.085Z,10.44
2023-05-04T11:46:11.119Z,9.40
2023-05-04T11:47:11.081Z,9.96
2023-05-04T11:48:11.114Z,10.24
2023-05-04T11:49:11.083Z,10.90
2023-05-04T11:50:11.090Z,10.64
2023-05-04T11:51:11.079Z,10.08
2023-05-04T11:52:11.096Z,10.12
2023-05-04T11:53:11.083Z,10.08
2023-05-04T11:54:19.077Z,11.10
2023-05-04T11:55:11.091Z,10.08
2023-05-04T11:56:11.124Z,10.46
2023-05-04T11:57:15.086Z,8.96
2023-05-04T11:58:11.087Z,10.60
2023-05-04T11:59:11.087Z,9.36
2023-05-04T12:00:11.081Z,10.80
2023-05-04T12:01:11.082Z,10.00
2023-05-04T12:02:17.103Z,11.46
2023-05-04T12:03:14.209Z,12.62
2023-05-04T12:04:11.147Z,10.60
2023-05-04T12:05:14.158Z,11.92
2023-05-04T12:06:11.112Z,11.64
2023-05-04T12:07:11.084Z,9.90
2023-05-04T12:08:11.093Z,10.24
2023-05-04T12:09:11.088Z,13.36
2023-05-04T12:10:11.077Z,11.58
2023-05-04T12:11:19.138Z,9.04
2023-05-04T12:12:11.082Z,14.60
2023-05-04T12:13:17.110Z,13.62
2023-05-04T12:14:11.084Z,10.00
2023-05-04T12:15:11.090Z,10.16
2023-05-04T12:16:13.174Z,10.12
2023-05-04T12:17:11.077Z,9.90
2023-05-04T12:18:15.094Z,11.76
2023-05-04T12:19:13.437Z,8.82
2023-05-04T12:20:11.115Z,15.06
2023-05-04T12:21:18.101Z,9.34
2023-05-04T12:22:11.090Z,9.58
2023-05-04T12:23:11.085Z,10.84
2023-05-04T12:24:11.086Z,14.58
2023-05-04T12:25:11.118Z,9.30
2023-05-04T12:26:11.097Z,8.46
2023-05-04T12:27:15.105Z,12.26
2023-05-04T12:28:11.088Z,12.78
2023-05-04T12:29:11.086Z,9.70
2023-05-04T12:30:11.178Z,9.16
2023-05-04T12:31:11.196Z,10.84
2023-05-04T12:32:11.135Z,10.60
2023-05-04T12:33:11.084Z,9.54
2023-05-04T12:34:11.084Z,11.28
2023-05-04T12:35:11.086Z,11.98
2023-05-04T12:36:11.084Z,11.08
2023-05-04T12:37:11.087Z,9.74
2023-05-04T12:38:11.088Z,9.20
2023-05-04T12:39:11.104Z,9.66
2023-05-04T12:40:20.923Z,9.74
2023-05-04T12:41:13.090Z,8.62
2023-05-04T12:42:11.085Z,8.98
2023-05-04T12:43:11.085Z,10.46
2023-05-04T12:44:12.104Z,10.46
2023-05-04T12:45:11.089Z,8.20
2023-05-04T12:46:11.145Z,9.10
2023-05-04T12:47:11.093Z,10.58
2023-05-04T12:48:11.089Z,9.96
2023-05-04T12:49:11.094Z,9.82
2023-05-04T12:50:11.130Z,10.94
2023-05-04T12:51:11.089Z,10.46
2023-05-04T12:52:11.088Z,10.10
2023-05-04T12:53:11.092Z,10.70
2023-05-04T12:54:11.092Z,9.58
2023-05-04T12:55:11.113Z,9.98
2023-05-04T12:56:11.087Z,9.26
2023-05-04T12:57:11.094Z,9.46
2023-05-04T12:58:11.114Z,8.94
2023-05-04T12:59:11.110Z,9.66
2023-05-04T13:00:13.092Z,9.80
2023-05-04T13:01:11.091Z,9.64